Time;durP1;ratioP1;P1;durP2;ratioP2;P2;SDS_P1;SDS_P2;PMS_P1;PMS_P2;Temp;Humidity;BMP_temperature;BMP_pressure;BME280_temperature;BME280_humidity;BME280_pressure;Samples;Min_cycle;Max_cycle;Signal;HPM_P1;HPM_P2
2021/12/27 00:01:33;;;;;;;8.93;2.92;;;3.10;35.20;;;;;;5095708;28;20245;-47
2021/12/27 00:04:01;;;;;;;10.07;3.58;;;3.20;35.00;;;;;;5095761;28;20668;-47
2021/12/27 00:06:28;;;;;;;1.45;1.00;;;3.00;35.40;;;;;;5096472;28;20168;-48
2021/12/27 00:08:56;;;;;;;2.15;1.60;;;3.00;35.40;;;;;;5096568;28;20658;-47
2021/12/27 00:11:23;;;;;;;3.20;1.63;;;3.00;35.60;;;;;;5096225;28;20167;-47
2021/12/27 00:13:51;;;;;;;1.63;1.10;;;3.10;35.50;;;;;;5096175;28;20176;-47
2021/12/27 00:16:18;;;;;;;3.28;3.00;;;3.00;35.50;;;;;;5096089;28;20186;-47
2021/12/27 00:18:45;;;;;;;2.00;1.08;;;3.00;35.60;;;;;;5094615;28;20235;-48
2021/12/27 00:21:13;;;;;;;2.83;2.17;;;2.90;35.90;;;;;;5095351;28;20168;-47
2021/12/27 00:23:41;;;;;;;1.95;1.23;;;3.00;35.80;;;;;;5095066;28;20282;-47
2021/12/27 00:26:08;;;;;;;5.30;1.55;;;3.00;35.60;;;;;;5095097;28;20182;-47
2021/12/27 00:28:36;;;;;;;3.97;1.85;;;3.00;35.60;;;;;;5078845;28;20224;-48
2021/12/27 00:31:04;;;;;;;1.42;0.90;;;2.90;35.50;;;;;;5095003;28;20189;-47
2021/12/27 00:33:31;;;;;;;1.73;0.82;;;2.90;35.80;;;;;;5096159;28;20603;-47
2021/12/27 00:35:59;;;;;;;2.55;1.50;;;2.90;36.10;;;;;;5095779;28;20621;-48
2021/12/27 00:38:26;;;;;;;2.65;1.58;;;3.00;36.70;;;;;;5078327;28;20253;-47
2021/12/27 00:40:54;;;;;;;3.80;1.65;;;3.10;36.00;;;;;;5095458;28;20221;-47
2021/12/27 00:43:21;;;;;;;5.05;2.60;;;3.10;36.00;;;;;;5095502;28;20294;-47
2021/12/27 00:45:49;;;;;;;1.70;1.13;;;3.10;36.10;;;;;;5094796;28;20253;-47
2021/12/27 00:48:17;;;;;;;2.15;1.58;;;3.20;35.90;;;;;;5077954;28;20257;-47
2021/12/27 00:50:48;;;;;;;3.10;1.38;;;3.20;35.60;;;;;;5095049;28;20247;-47
2021/12/27 00:53:15;;;;;;;3.72;1.58;;;3.20;35.80;;;;;;5094795;28;20170;-48
2021/12/27 00:55:43;;;;;;;3.38;2.22;;;3.20;35.90;;;;;;5077886;28;20215;-47
2021/12/27 00:58:10;;;;;;;1.30;0.85;;;3.10;35.80;;;;;;5095372;28;20236;-47
2021/12/27 01:00:38;;;;;;;1.65;1.33;;;3.10;35.80;;;;;;5095320;28;20482;-48
2021/12/27 01:03:06;;;;;;;4.22;1.00;;;3.10;36.30;;;;;;5094467;28;20198;-48
2021/12/27 01:05:34;;;;;;;1.92;1.73;;;3.20;36.00;;;;;;5095280;28;20158;-47
2021/12/27 01:08:01;;;;;;;5.30;2.97;;;3.20;36.10;;;;;;5095435;28;20163;-48
2021/12/27 01:18:41;;;;;;;3.33;1.83;;;3.30;36.00;;;;;;5079439;28;20224;-46
2021/12/27 01:21:09;;;;;;;5.10;2.55;;;3.20;35.80;;;;;;5095257;28;20488;-47
2021/12/27 01:23:37;;;;;;;1.98;1.77;;;3.20;35.90;;;;;;5094173;28;20194;-47
2021/12/27 01:26:04;;;;;;;1.90;1.55;;;3.20;36.30;;;;;;5094125;28;20167;-47
2021/12/27 01:28:32;;;;;;;1.10;0.40;;;3.20;36.00;;;;;;5094209;28;20178;-47
2021/12/27 01:30:59;;;;;;;1.55;1.10;;;3.20;36.10;;;;;;5095425;28;20252;-48
2021/12/27 01:33:27;;;;;;;2.50;1.55;;;3.20;36.30;;;;;;5094798;28;20227;-47
2021/12/27 01:35:56;;;;;;;2.28;1.88;;;3.20;37.00;;;;;;5094065;28;20164;-47
2021/12/27 01:38:24;;;;;;;4.10;0.98;;;3.20;36.30;;;;;;5094940;28;20175;-47
2021/12/27 01:40:54;;;;;;;4.15;1.23;;;3.20;36.50;;;;;;5094802;28;20217;-47
2021/12/27 01:43:26;;;;;;;5.15;1.80;;;3.10;36.60;;;;;;5093900;28;20191;-48
2021/12/27 01:45:59;;;;;;;1.65;1.08;;;3.00;36.50;;;;;;5094492;28;20485;-46
2021/12/27 01:48:32;;;;;;;4.32;1.67;;;3.10;36.90;;;;;;5077596;28;20190;-47
2021/12/27 01:51:01;;;;;;;2.67;1.83;;;3.10;36.80;;;;;;5094069;28;20170;-47
2021/12/27 01:53:30;;;;;;;2.80;0.90;;;3.10;37.00;;;;;;5094882;28;20629;-47
2021/12/27 01:55:59;;;;;;;4.80;1.80;;;3.20;36.80;;;;;;5094895;28;20176;-47
2021/12/27 01:58:27;;;;;;;3.28;1.23;;;3.30;36.50;;;;;;5093832;28;20177;-48
2021/12/27 02:00:57;;;;;;;1.92;1.13;;;3.30;36.80;;;;;;5094679;28;20181;-47
2021/12/27 02:03:27;;;;;;;1.88;1.13;;;3.30;36.60;;;;;;5093702;28;20215;-49
2021/12/27 02:05:55;;;;;;;6.30;1.88;;;3.40;36.60;;;;;;5077801;28;20167;-49
2021/12/27 02:08:24;;;;;;;4.57;2.10;;;3.50;36.50;;;;;;5094785;28;20246;-49
2021/12/27 02:10:52;;;;;;;4.80;1.63;;;3.50;36.60;;;;;;5093747;28;20169;-49
2021/12/27 02:13:21;;;;;;;2.10;1.63;;;3.40;36.40;;;;;;5094718;28;20166;-51
2021/12/27 02:15:48;;;;;;;1.60;1.50;;;3.40;36.50;;;;;;5094578;28;20167;-49
2021/12/27 02:18:16;;;;;;;8.75;2.10;;;3.50;36.50;;;;;;5094539;28;20163;-49
2021/12/27 02:20:44;;;;;;;3.85;2.03;;;3.50;36.80;;;;;;5094636;28;20164;-50
2021/12/27 02:23:17;;;;;;;3.95;1.60;;;3.50;37.00;;;;;;5093727;28;20245;-48
2021/12/27 02:25:50;;;;;;;5.93;1.83;;;3.50;37.00;;;;;;5093635;28;20163;-49
2021/12/27 02:28:19;;;;;;;1.65;1.33;;;3.50;37.00;;;;;;5093571;28;20166;-50
2021/12/27 02:30:49;;;;;;;2.03;1.48;;;3.50;37.20;;;;;;5093567;28;20247;-49
2021/12/27 02:33:16;;;;;;;1.60;1.27;;;3.50;37.10;;;;;;5094398;28;20171;-50
2021/12/27 02:35:54;;;;;;;2.17;1.92;;;3.50;37.20;;;;;;5093588;28;20164;-50
2021/12/27 02:38:24;;;;;;;9.20;2.63;;;3.50;37.30;;;;;;5093673;28;20191;-49
2021/12/27 02:40:52;;;;;;;2.53;1.42;;;3.50;37.80;;;;;;5094531;28;20587;-50
2021/12/27 02:43:23;;;;;;;3.92;1.52;;;3.50;37.70;;;;;;5097142;28;20567;-49
2021/12/27 02:45:56;;;;;;;3.45;1.38;;;3.50;37.80;;;;;;5097192;28;20162;-49
2021/12/27 02:48:27;;;;;;;8.70;2.63;;;3.40;38.00;;;;;;5097932;28;20243;-49
2021/12/27 02:50:55;;;;;;;3.55;2.13;;;3.40;37.90;;;;;;5096939;28;20156;-49
2021/12/27 02:53:24;;;;;;;5.47;2.75;;;3.50;38.10;;;;;;5097701;28;20171;-49
2021/12/27 02:55:54;;;;;;;1.20;0.60;;;3.50;38.40;;;;;;5097905;28;20253;-50
2021/12/27 02:58:22;;;;;;;4.45;2.78;;;3.50;38.30;;;;;;5096698;28;20190;-48
2021/12/27 03:01:04;;;;;;;3.03;1.55;;;3.50;38.10;;;;;;5079980;28;20175;-49
2021/12/27 03:03:32;;;;;;;3.58;1.25;;;3.50;38.50;;;;;;5096865;28;20197;-49
2021/12/27 03:05:59;;;;;;;4.75;2.90;;;3.50;38.40;;;;;;5096970;28;20167;-49
2021/12/27 03:08:27;;;;;;;6.85;1.88;;;3.50;38.30;;;;;;5096743;28;20487;-49
2021/12/27 03:11:00;;;;;;;4.80;1.83;;;3.60;38.30;;;;;;5097549;28;20171;-49
2021/12/27 03:13:33;;;;;;;7.63;3.53;;;3.60;38.30;;;;;;5096773;28;20182;-50
2021/12/27 03:16:13;;;;;;;1.70;1.23;;;3.70;38.30;;;;;;5096679;28;20254;-49
2021/12/27 03:18:47;;;;;;;3.90;2.33;;;3.60;38.40;;;;;;5097325;28;20155;-49
2021/12/27 03:21:15;;;;;;;5.30;2.83;;;3.60;38.30;;;;;;5096789;28;20615;-50
2021/12/27 03:23:44;;;;;;;2.40;2.15;;;3.60;38.30;;;;;;5097224;28;20510;-49
2021/12/27 03:26:12;;;;;;;2.28;1.35;;;3.70;38.30;;;;;;5097325;28;20160;-49
2021/12/27 03:28:39;;;;;;;1.88;1.55;;;3.70;38.30;;;;;;5097289;28;20535;-49
2021/12/27 03:31:09;;;;;;;11.25;2.30;;;3.80;38.30;;;;;;5096235;28;20239;-50
2021/12/27 03:33:37;;;;;;;6.15;3.13;;;3.70;38.50;;;;;;5096960;28;20171;-49
2021/12/27 03:36:08;;;;;;;2.00;1.80;;;3.70;38.40;;;;;;5079670;28;20238;-49
2021/12/27 03:38:41;;;;;;;5.28;3.75;;;3.60;38.60;;;;;;5097122;28;20191;-50
2021/12/27 03:41:14;;;;;;;4.30;2.00;;;3.60;38.50;;;;;;5095684;28;20199;-50
2021/12/27 03:43:42;;;;;;;3.65;2.33;;;3.60;38.50;;;;;;5096148;28;20234;-49
2021/12/27 03:46:09;;;;;;;4.22;2.15;;;3.70;38.50;;;;;;5095973;28;20165;-49
2021/12/27 03:48:37;;;;;;;2.20;1.50;;;3.70;38.90;;;;;;5096691;28;20587;-49
2021/12/27 03:51:06;;;;;;;2.53;1.98;;;3.70;38.80;;;;;;5095814;28;20213;-49
2021/12/27 03:53:35;;;;;;;2.53;2.08;;;3.60;39.00;;;;;;5078400;28;20570;-49
2021/12/27 03:56:03;;;;;;;3.83;2.10;;;3.60;38.90;;;;;;5096568;28;20171;-49
2021/12/27 03:58:34;;;;;;;1.58;1.05;;;3.60;39.10;;;;;;5096741;28;20199;-49
2021/12/27 04:01:14;;;;;;;4.70;2.17;;;3.60;39.00;;;;;;5079320;28;20188;-50
2021/12/27 04:03:48;;;;;;;1.67;1.05;;;3.60;39.00;;;;;;5095248;28;20190;-49
2021/12/27 04:06:17;;;;;;;9.85;1.60;;;3.60;39.00;;;;;;5096837;28;20168;-49
2021/12/27 04:08:45;;;;;;;1.80;1.35;;;3.60;39.00;;;;;;5079195;28;20171;-49
2021/12/27 04:11:14;;;;;;;1.63;1.33;;;3.70;39.10;;;;;;5095525;28;20178;-50
2021/12/27 04:13:42;;;;;;;4.90;2.47;;;3.70;39.00;;;;;;5095475;28;20165;-49
2021/12/27 04:16:09;;;;;;;2.85;1.90;;;3.70;39.10;;;;;;5096329;28;20163;-49
2021/12/27 04:18:37;;;;;;;1.90;0.90;;;3.80;38.80;;;;;;5095211;28;20530;-50
2021/12/27 04:21:05;;;;;;;3.55;1.25;;;3.80;38.70;;;;;;5096765;28;20247;-49
2021/12/27 04:23:32;;;;;;;1.90;1.50;;;3.90;38.60;;;;;;5095140;28;20198;-50
2021/12/27 04:25:59;;;;;;;2.97;2.17;;;3.80;38.40;;;;;;5094987;28;20278;-49
2021/12/27 04:28:27;;;;;;;3.67;1.60;;;3.60;38.70;;;;;;5095027;28;20228;-50
2021/12/27 04:30:55;;;;;;;4.60;2.15;;;3.60;39.00;;;;;;5095877;28;20194;-49
2021/12/27 04:33:22;;;;;;;5.82;1.02;;;3.60;38.90;;;;;;5096008;28;20176;-49
2021/12/27 04:35:50;;;;;;;3.75;2.40;;;3.50;39.00;;;;;;5095815;28;20584;-49
2021/12/27 04:38:18;;;;;;;2.33;0.95;;;3.60;38.80;;;;;;5094942;28;20190;-49
2021/12/27 04:40:48;;;;;;;3.13;1.85;;;3.60;39.00;;;;;;5095595;28;20663;-50
2021/12/27 04:43:18;;;;;;;4.15;1.33;;;3.50;39.40;;;;;;5095854;28;20269;-49
2021/12/27 04:45:47;;;;;;;1.83;1.35;;;3.50;39.40;;;;;;5095031;28;20160;-49
2021/12/27 04:48:15;;;;;;;3.78;2.92;;;3.60;39.20;;;;;;5095561;28;20246;-49
2021/12/27 04:50:42;;;;;;;2.78;1.85;;;3.60;39.00;;;;;;5094783;28;20491;-49
2021/12/27 04:53:10;;;;;;;3.65;2.03;;;3.60;39.30;;;;;;5095630;28;20176;-49
2021/12/27 04:55:38;;;;;;;6.35;2.67;;;3.50;39.30;;;;;;5094569;28;20220;-49
2021/12/27 04:58:10;;;;;;;4.03;1.25;;;3.50;39.60;;;;;;5095394;28;20172;-50
2021/12/27 05:00:39;;;;;;;3.22;2.30;;;3.40;39.80;;;;;;5095208;28;20163;-50
2021/12/27 05:03:07;;;;;;;5.65;1.77;;;3.50;39.80;;;;;;5094075;28;20198;-49
2021/12/27 05:05:34;;;;;;;3.30;1.77;;;3.50;39.50;;;;;;5095391;28;20191;-50
2021/12/27 05:08:03;;;;;;;7.28;1.67;;;3.60;39.50;;;;;;5094538;28;20168;-49
2021/12/27 05:10:31;;;;;;;3.20;2.20;;;3.60;39.60;;;;;;5077809;28;20155;-49
2021/12/27 05:12:59;;;;;;;3.60;1.52;;;3.60;39.90;;;;;;5094246;28;20164;-49
2021/12/27 05:15:26;;;;;;;3.97;2.25;;;3.60;39.50;;;;;;5094525;28;20496;-50
2021/12/27 05:17:54;;;;;;;3.60;2.35;;;3.50;39.60;;;;;;5094320;28;20171;-49
2021/12/27 05:20:22;;;;;;;1.98;0.95;;;3.40;39.70;;;;;;5095466;28;20167;-49
2021/12/27 05:22:49;;;;;;;2.47;1.48;;;3.40;40.50;;;;;;5095021;28;20276;-47
2021/12/27 05:25:17;;;;;;;2.40;0.90;;;3.50;39.70;;;;;;5077573;28;20164;-47
2021/12/27 05:27:45;;;;;;;5.50;2.47;;;3.50;39.60;;;;;;5094930;28;20160;-47
2021/12/27 05:30:13;;;;;;;2.22;1.65;;;3.60;39.60;;;;;;5077583;28;20173;-47
2021/12/27 05:32:41;;;;;;;1.75;1.30;;;3.60;39.60;;;;;;5077529;28;20252;-47
2021/12/27 05:35:10;;;;;;;3.33;1.67;;;3.70;39.40;;;;;;5095049;28;20218;-47
2021/12/27 05:37:38;;;;;;;6.53;3.63;;;3.60;39.30;;;;;;5094118;28;20183;-47
2021/12/27 05:40:09;;;;;;;2.78;1.20;;;3.60;39.50;;;;;;5093844;28;20323;-48
2021/12/27 05:42:37;;;;;;;2.85;1.80;;;3.40;40.00;;;;;;5094223;28;20221;-47
2021/12/27 05:45:06;;;;;;;7.93;2.10;;;3.50;40.00;;;;;;5094148;28;20167;-49
2021/12/27 05:47:34;;;;;;;3.67;1.95;;;3.40;40.10;;;;;;5094397;28;20200;-48
2021/12/27 05:50:02;;;;;;;5.20;2.33;;;3.40;39.90;;;;;;5093987;28;20616;-47
2021/12/27 05:52:29;;;;;;;3.83;1.77;;;3.50;39.90;;;;;;5093994;28;20168;-47
2021/12/27 05:54:57;;;;;;;4.43;1.75;;;3.40;40.00;;;;;;5095193;28;20158;-48
2021/12/27 05:57:25;;;;;;;3.97;1.35;;;3.50;39.80;;;;;;5094724;28;20164;-48
2021/12/27 05:59:52;;;;;;;3.97;2.45;;;3.60;39.70;;;;;;5094772;28;20592;-48
2021/12/27 06:02:20;;;;;;;5.82;4.15;;;3.70;39.40;;;;;;5094908;28;20187;-47
2021/12/27 06:04:48;;;;;;;5.43;2.95;;;3.60;39.40;;;;;;5094811;28;20164;-47
2021/12/27 06:07:16;;;;;;;7.18;2.58;;;3.60;39.60;;;;;;5094972;28;20238;-47
2021/12/27 06:09:44;;;;;;;2.00;1.83;;;3.60;39.50;;;;;;5094775;28;20226;-47
2021/12/27 06:12:12;;;;;;;4.57;2.05;;;3.50;39.70;;;;;;5076839;28;20182;-47
2021/12/27 06:14:39;;;;;;;3.40;1.60;;;3.60;39.60;;;;;;5094615;28;20164;-48
2021/12/27 06:17:06;;;;;;;4.22;2.55;;;3.50;39.50;;;;;;5097025;28;20171;-47
2021/12/27 06:19:34;;;;;;;4.88;2.60;;;3.50;39.70;;;;;;5098638;28;20189;-47
2021/12/27 06:22:03;;;;;;;2.55;1.75;;;3.80;39.60;;;;;;5098375;28;20203;-47
2021/12/27 06:24:30;;;;;;;6.70;2.00;;;3.60;39.50;;;;;;5097330;28;20191;-47
2021/12/27 06:26:58;;;;;;;4.50;2.13;;;3.60;39.20;;;;;;5098542;28;20171;-47
2021/12/27 06:29:25;;;;;;;4.80;2.03;;;3.70;39.50;;;;;;5098626;28;20236;-48
2021/12/27 06:31:53;;;;;;;2.35;1.45;;;3.70;39.20;;;;;;5097292;28;20567;-48
2021/12/27 06:34:20;;;;;;;3.75;2.05;;;3.70;39.10;;;;;;5097412;28;20164;-48
2021/12/27 06:36:48;;;;;;;6.15;2.90;;;3.70;39.20;;;;;;5098200;28;20168;-47
2021/12/27 06:39:16;;;;;;;2.95;2.08;;;3.60;39.30;;;;;;5098074;28;20492;-47
2021/12/27 06:41:43;;;;;;;3.08;2.22;;;3.70;39.10;;;;;;5096969;28;20209;-47
2021/12/27 06:44:11;;;;;;;2.20;1.88;;;3.80;39.10;;;;;;5097147;28;20198;-47
2021/12/27 06:46:38;;;;;;;7.32;3.03;;;3.80;38.90;;;;;;5097826;28;20165;-48
2021/12/27 06:49:06;;;;;;;2.03;1.60;;;3.80;39.00;;;;;;5097006;28;20164;-47
2021/12/27 06:51:33;;;;;;;5.32;3.50;;;3.70;39.20;;;;;;5097739;28;20229;-48
2021/12/27 06:54:00;;;;;;;2.40;1.52;;;3.80;39.20;;;;;;5097749;28;20165;-47
2021/12/27 06:56:30;;;;;;;4.95;2.70;;;3.70;39.20;;;;;;5096849;28;20187;-47
2021/12/27 06:58:58;;;;;;;6.60;2.97;;;3.70;39.10;;;;;;5097647;28;20171;-48
2021/12/27 07:01:26;;;;;;;4.70;2.08;;;3.60;39.40;;;;;;5080383;28;20179;-47
2021/12/27 07:03:53;;;;;;;9.27;2.25;;;3.60;39.50;;;;;;5096582;28;20188;-47
2021/12/27 07:06:22;;;;;;;4.40;3.40;;;3.60;40.10;;;;;;5097482;28;20164;-47
2021/12/27 07:08:49;;;;;;;1.92;1.73;;;3.70;39.60;;;;;;5096688;28;20236;-48
2021/12/27 07:11:17;;;;;;;4.43;1.80;;;3.70;39.60;;;;;;5096938;28;20170;-47
2021/12/27 07:13:45;;;;;;;2.05;1.25;;;3.70;39.30;;;;;;5097757;28;20171;-47
2021/12/27 07:16:12;;;;;;;2.58;1.33;;;3.60;39.40;;;;;;5097505;28;20253;-47
2021/12/27 07:18:39;;;;;;;2.38;1.27;;;3.60;39.50;;;;;;5097251;28;20175;-47
2021/12/27 07:21:07;;;;;;;3.85;2.38;;;3.60;39.60;;;;;;5096358;28;20256;-47
2021/12/27 07:23:34;;;;;;;4.55;2.10;;;3.60;39.60;;;;;;5096301;28;20234;-47
2021/12/27 07:26:01;;;;;;;6.20;4.20;;;3.60;39.40;;;;;;5097025;28;20170;-47
2021/12/27 07:28:30;;;;;;;3.05;1.95;;;3.70;39.40;;;;;;5096484;28;20164;-47
2021/12/27 07:30:58;;;;;;;8.13;3.08;;;3.60;39.50;;;;;;5096128;28;20160;-48
2021/12/27 07:33:25;;;;;;;1.90;1.50;;;3.60;39.50;;;;;;5096099;28;20175;-47
2021/12/27 07:35:53;;;;;;;3.70;2.83;;;3.50;39.70;;;;;;5096939;28;20167;-47
2021/12/27 07:38:21;;;;;;;4.10;3.00;;;3.60;39.60;;;;;;5096881;28;20244;-47
2021/12/27 07:40:48;;;;;;;9.38;4.28;;;3.60;40.60;;;;;;5096550;28;20230;-48
2021/12/27 07:43:16;;;;;;;2.25;1.63;;;3.60;39.60;;;;;;5096761;28;20212;-47
2021/12/27 07:45:43;;;;;;;4.90;2.17;;;3.50;39.90;;;;;;5096997;28;20174;-47
2021/12/27 07:48:12;;;;;;;4.15;2.80;;;3.50;40.10;;;;;;5096691;28;20156;-47
2021/12/27 07:50:39;;;;;;;6.15;2.20;;;3.50;40.00;;;;;;5096949;28;20311;-47
2021/12/27 07:53:07;;;;;;;6.78;1.50;;;3.60;40.00;;;;;;5096120;28;20168;-47
2021/12/27 07:55:35;;;;;;;4.30;2.33;;;3.70;40.00;;;;;;5096720;28;20191;-48
2021/12/27 07:58:03;;;;;;;2.13;1.92;;;3.60;39.70;;;;;;5095720;28;20608;-48
2021/12/27 08:00:30;;;;;;;1.92;1.33;;;3.70;40.20;;;;;;5096626;28;20589;-48
2021/12/27 08:02:58;;;;;;;3.05;1.48;;;3.50;40.00;;;;;;5095349;28;20211;-47
2021/12/27 08:05:25;;;;;;;4.38;2.55;;;3.50;40.20;;;;;;5096742;28;20454;-48
2021/12/27 08:07:53;;;;;;;5.50;2.05;;;3.50;40.00;;;;;;5095566;28;20638;-47
2021/12/27 08:10:21;;;;;;;4.22;2.78;;;3.60;40.00;;;;;;5095407;28;20168;-48
2021/12/27 08:12:48;;;;;;;8.05;2.88;;;3.70;39.90;;;;;;5096231;28;20606;-48
2021/12/27 08:15:16;;;;;;;3.13;2.47;;;3.70;39.70;;;;;;5095276;28;20171;-47
2021/12/27 08:17:43;;;;;;;4.57;2.15;;;3.70;40.00;;;;;;5096372;28;20164;-47
2021/12/27 08:20:11;;;;;;;4.60;1.95;;;3.70;39.90;;;;;;5096075;28;20163;-47
2021/12/27 08:22:39;;;;;;;2.85;1.58;;;3.80;40.80;;;;;;5096054;28;20199;-47
2021/12/27 08:25:07;;;;;;;4.05;2.75;;;3.80;40.20;;;;;;5095328;28;20161;-47
2021/12/27 08:27:37;;;;;;;3.63;2.05;;;4.00;40.40;;;;;;5095895;28;20232;-47
2021/12/27 08:30:06;;;;;;;1.90;0.85;;;4.00;40.30;;;;;;5095914;28;20168;-47
2021/12/27 08:32:39;;;;;;;5.38;1.67;;;4.10;40.40;;;;;;5096064;28;20164;-48
2021/12/27 08:35:08;;;;;;;3.65;1.88;;;4.30;41.20;;;;;;5096084;28;20151;-48
2021/12/27 08:37:36;;;;;;;3.75;3.13;;;4.00;41.10;;;;;;5078255;28;20187;-48
2021/12/27 08:40:06;;;;;;;7.95;2.38;;;4.00;41.00;;;;;;5094577;28;20203;-48
2021/12/27 08:42:33;;;;;;;3.05;1.25;;;4.00;41.10;;;;;;5094694;28;20164;-47
2021/12/27 08:45:03;;;;;;;4.20;1.83;;;4.10;40.80;;;;;;5094841;28;20170;-48
2021/12/27 08:47:31;;;;;;;1.52;1.10;;;4.10;41.00;;;;;;5095757;28;20180;-47
2021/12/27 08:50:00;;;;;;;5.75;4.47;;;4.00;40.80;;;;;;5094796;28;20171;-48
2021/12/27 08:52:29;;;;;;;2.53;1.73;;;4.00;41.10;;;;;;5095661;28;20269;-48
2021/12/27 08:54:58;;;;;;;2.92;1.75;;;4.10;40.90;;;;;;5095533;28;20182;-49
2021/12/27 08:57:25;;;;;;;3.05;1.65;;;4.10;41.00;;;;;;5094720;28;20220;-48
2021/12/27 08:59:53;;;;;;;2.40;2.20;;;4.20;40.80;;;;;;5095319;28;20546;-48
2021/12/27 09:02:20;;;;;;;2.65;2.13;;;4.20;40.90;;;;;;5095307;28;20309;-49
2021/12/27 09:04:47;;;;;;;6.93;2.08;;;4.10;40.90;;;;;;5095363;28;20582;-50
2021/12/27 09:07:15;;;;;;;5.38;1.67;;;4.10;40.90;;;;;;5095460;28;20640;-49
2021/12/27 09:09:44;;;;;;;4.88;2.30;;;4.10;40.50;;;;;;5094382;28;20164;-49
2021/12/27 09:12:13;;;;;;;9.60;2.10;;;4.10;40.90;;;;;;5095114;28;20621;-51
2021/12/27 09:14:40;;;;;;;3.45;2.35;;;4.20;40.40;;;;;;5094280;28;20187;-48
2021/12/27 09:17:08;;;;;;;5.78;2.35;;;4.00;40.40;;;;;;5094270;28;20164;-48
2021/12/27 09:19:35;;;;;;;6.05;3.03;;;4.00;40.90;;;;;;5077563;28;20246;-47
2021/12/27 09:22:04;;;;;;;2.75;2.33;;;4.00;40.80;;;;;;5094981;28;20175;-48
2021/12/27 09:24:31;;;;;;;5.20;2.30;;;4.10;40.80;;;;;;5094898;28;20625;-47
2021/12/27 09:26:59;;;;;;;4.82;1.70;;;4.10;40.40;;;;;;5095145;28;20164;-47
2021/12/27 09:29:27;;;;;;;4.45;2.35;;;4.20;40.70;;;;;;5095151;28;20168;-48
2021/12/27 09:31:54;;;;;;;3.38;2.30;;;4.30;40.60;;;;;;5094214;28;20164;-48
2021/12/27 09:34:22;;;;;;;3.10;2.10;;;4.20;40.20;;;;;;5094918;28;20243;-47
2021/12/27 09:36:49;;;;;;;6.00;1.67;;;4.20;40.30;;;;;;5093899;28;20262;-47
2021/12/27 09:39:17;;;;;;;4.45;3.70;;;4.30;40.60;;;;;;5095074;28;20248;-47
2021/12/27 09:41:45;;;;;;;6.18;2.13;;;4.20;40.60;;;;;;5093753;28;20226;-48
2021/12/27 09:44:13;;;;;;;5.95;3.47;;;4.30;40.50;;;;;;5094025;28;20636;-47
2021/12/27 09:46:41;;;;;;;5.75;2.58;;;4.30;40.40;;;;;;5094089;28;20224;-47
2021/12/27 09:49:12;;;;;;;2.97;1.77;;;4.40;40.30;;;;;;5094863;28;20164;-48
2021/12/27 09:51:40;;;;;;;5.95;2.47;;;4.40;40.30;;;;;;5097961;28;20581;-48
2021/12/27 09:54:08;;;;;;;5.43;2.83;;;4.50;40.40;;;;;;5098096;28;20262;-48
2021/12/27 09:56:37;;;;;;;9.90;4.20;;;4.50;40.60;;;;;;5098947;28;20164;-47
2021/12/27 09:59:05;;;;;;;8.48;4.35;;;4.50;40.20;;;;;;5081401;28;20179;-47
2021/12/27 10:01:32;;;;;;;3.00;2.40;;;4.60;40.20;;;;;;5098876;28;20229;-47
2021/12/27 10:04:02;;;;;;;4.43;3.05;;;4.60;40.10;;;;;;5097713;28;20187;-49
2021/12/27 10:06:30;;;;;;;6.10;1.35;;;4.60;40.20;;;;;;5098752;28;20168;-48
2021/12/27 10:09:00;;;;;;;2.78;1.33;;;4.50;40.80;;;;;;5098052;28;20191;-47
2021/12/27 10:11:32;;;;;;;5.50;1.98;;;4.50;40.70;;;;;;5098801;28;20486;-48
2021/12/27 10:14:13;;;;;;;4.38;2.25;;;4.50;40.80;;;;;;5097534;28;20242;-48
2021/12/27 10:16:50;;;;;;;5.53;3.15;;;4.60;40.50;;;;;;5098508;28;20235;-47
2021/12/27 10:19:19;;;;;;;4.65;2.70;;;4.70;40.40;;;;;;5097833;28;20186;-47
2021/12/27 10:21:51;;;;;;;3.30;2.17;;;4.80;40.20;;;;;;5098485;28;20178;-48
2021/12/27 10:24:28;;;;;;;3.45;2.15;;;4.80;40.20;;;;;;5097704;28;20192;-48
2021/12/27 10:26:58;;;;;;;3.03;1.85;;;4.70;40.20;;;;;;5097266;28;20174;-47
2021/12/27 10:29:38;;;;;;;4.13;2.45;;;4.70;40.20;;;;;;5080944;28;20574;-47
2021/12/27 10:32:05;;;;;;;4.45;1.73;;;4.70;40.30;;;;;;5097490;28;20156;-47
2021/12/27 10:34:53;;;;;;;2.30;1.48;;;4.70;40.30;;;;;;5098377;28;20167;-47
2021/12/27 10:37:32;;;;;;;2.95;0.98;;;4.60;40.30;;;;;;5082721;28;20591;-47
2021/12/27 10:40:04;;;;;;;5.90;3.13;;;4.60;41.00;;;;;;5096910;28;20212;-47
2021/12/27 10:42:37;;;;;;;3.85;2.92;;;4.60;41.00;;;;;;5097007;28;20613;-48
2021/12/27 10:45:06;;;;;;;2.85;1.90;;;4.70;41.10;;;;;;5097408;28;20197;-47
2021/12/27 10:47:37;;;;;;;4.65;2.65;;;4.80;40.80;;;;;;5098122;28;20160;-48
2021/12/27 10:50:18;;;;;;;8.73;2.30;;;4.80;40.80;;;;;;5096914;28;20590;-48
2021/12/27 10:52:50;;;;;;;6.38;2.95;;;4.80;40.80;;;;;;5097767;28;20473;-47
2021/12/27 10:55:26;;;;;;;3.90;2.42;;;4.80;41.00;;;;;;5097069;28;20384;-48
2021/12/27 10:58:09;;;;;;;4.68;2.22;;;4.90;40.90;;;;;;5097111;28;20250;-47
2021/12/27 11:00:37;;;;;;;4.18;1.88;;;4.80;40.50;;;;;;5097031;28;20511;-47
2021/12/27 11:03:05;;;;;;;3.75;2.72;;;4.90;40.60;;;;;;5096519;28;20192;-48
2021/12/27 11:05:36;;;;;;;3.53;1.85;;;5.00;40.40;;;;;;5096617;28;20183;-48
2021/12/27 11:08:05;;;;;;;3.40;1.80;;;5.00;40.60;;;;;;5096958;28;20180;-48
2021/12/27 11:10:36;;;;;;;4.32;3.30;;;4.90;40.30;;;;;;5096430;28;20492;-48
2021/12/27 11:13:05;;;;;;;4.35;3.22;;;4.80;40.50;;;;;;5097060;28;20247;-49
2021/12/27 11:15:35;;;;;;;4.82;2.63;;;4.70;40.60;;;;;;5097313;28;20160;-48
2021/12/27 11:18:05;;;;;;;5.72;2.25;;;4.70;40.60;;;;;;5096545;28;20493;-48
2021/12/27 11:20:33;;;;;;;2.97;1.42;;;4.70;40.70;;;;;;5096322;28;20601;-49
2021/12/27 11:23:04;;;;;;;11.25;4.10;;;4.80;40.60;;;;;;5096190;28;20200;-48
2021/12/27 11:25:37;;;;;;;5.90;3.15;;;4.90;40.40;;;;;;5096300;28;20478;-49
2021/12/27 11:28:24;;;;;;;8.52;3.63;;;4.90;40.40;;;;;;5097353;28;20171;-48
2021/12/27 11:30:52;;;;;;;5.72;2.13;;;4.90;40.30;;;;;;5082447;28;20178;-48
2021/12/27 11:33:22;;;;;;;2.35;1.85;;;4.90;40.40;;;;;;5079696;28;20168;-47
2021/12/27 11:35:58;;;;;;;7.07;3.55;;;4.90;40.20;;;;;;5097046;28;20176;-47
2021/12/27 11:38:32;;;;;;;3.80;2.78;;;4.90;40.30;;;;;;5096968;28;20540;-48
2021/12/27 11:41:02;;;;;;;4.22;3.58;;;4.90;40.30;;;;;;5095940;28;20203;-47
2021/12/27 11:44:00;;;;;;;6.85;2.85;;;4.90;40.00;;;;;;5096066;28;20199;-47
2021/12/27 11:46:51;;;;;;;3.35;2.10;;;4.90;40.60;;;;;;5095922;28;20571;-47
2021/12/27 11:49:56;;;;;;;2.78;2.13;;;4.90;40.60;;;;;;5095477;28;20182;-48
2021/12/27 11:52:30;;;;;;;2.75;1.17;;;4.90;40.20;;;;;;5082351;28;20160;-49
2021/12/27 11:55:10;;;;;;;8.15;2.53;;;4.80;40.30;;;;;;5096524;28;20204;-48
2021/12/27 11:57:47;;;;;;;13.40;4.90;;;4.80;40.40;;;;;;5096466;28;20168;-47
2021/12/27 12:00:32;;;;;;;2.72;2.33;;;4.90;40.30;;;;;;5096351;28;20321;-47
2021/12/27 12:03:16;;;;;;;5.22;2.75;;;4.80;40.50;;;;;;5096326;28;20187;-48
2021/12/27 12:05:55;;;;;;;6.32;3.00;;;4.90;40.50;;;;;;5095667;28;20167;-48
2021/12/27 12:08:29;;;;;;;4.70;3.40;;;4.90;40.40;;;;;;5095314;28;20164;-48
2021/12/27 12:11:02;;;;;;;3.42;3.08;;;4.90;40.50;;;;;;5096526;28;20160;-48
2021/12/27 12:13:41;;;;;;;5.25;3.67;;;5.00;40.10;;;;;;5095494;28;20180;-48
2021/12/27 12:16:18;;;;;;;7.50;2.17;;;5.10;40.30;;;;;;5096190;28;20159;-48
2021/12/27 12:19:09;;;;;;;2.20;1.60;;;5.00;40.20;;;;;;5079902;28;20156;-47
2021/12/27 12:21:51;;;;;;;4.22;2.83;;;5.10;40.00;;;;;;5096276;28;20171;-47
2021/12/27 12:24:23;;;;;;;5.47;2.53;;;5.00;40.20;;;;;;5094957;28;20311;-48
2021/12/27 12:27:01;;;;;;;2.78;2.33;;;5.00;40.20;;;;;;5078823;28;20522;-48
2021/12/27 12:29:47;;;;;;;4.68;2.42;;;5.00;40.10;;;;;;5095096;28;20209;-47
2021/12/27 12:32:16;;;;;;;3.63;3.00;;;5.00;40.30;;;;;;5095893;28;20187;-47
2021/12/27 12:34:44;;;;;;;9.23;3.33;;;5.00;40.20;;;;;;5095872;28;20168;-49
2021/12/27 12:37:14;;;;;;;3.10;2.10;;;5.10;40.40;;;;;;5095772;28;20164;-48
2021/12/27 12:39:48;;;;;;;4.53;3.33;;;5.10;40.10;;;;;;5095526;28;20175;-48
2021/12/27 12:42:23;;;;;;;5.45;3.35;;;5.20;40.40;;;;;;5095929;28;20492;-47
2021/12/27 12:44:59;;;;;;;14.82;5.82;;;5.20;40.10;;;;;;5094536;28;20195;-49
2021/12/27 12:47:28;;;;;;;5.85;3.92;;;5.20;40.10;;;;;;5095553;28;20536;-47
2021/12/27 12:49:57;;;;;;;4.40;2.47;;;5.30;40.10;;;;;;5095547;28;20196;-47
2021/12/27 12:52:26;;;;;;;4.93;2.58;;;5.30;40.00;;;;;;5095646;28;20183;-48
2021/12/27 12:54:54;;;;;;;6.85;2.67;;;5.30;39.80;;;;;;5095632;28;20168;-47
2021/12/27 12:57:25;;;;;;;7.85;2.88;;;5.20;39.90;;;;;;5061643;28;20190;-48
2021/12/27 12:59:58;;;;;;;7.75;3.17;;;5.10;40.00;;;;;;5094720;28;20255;-47
2021/12/27 13:02:34;;;;;;;4.18;3.83;;;5.20;40.20;;;;;;5094593;28;20609;-49
2021/12/27 13:05:04;;;;;;;6.05;2.08;;;5.10;40.60;;;;;;5094254;28;20174;-48
2021/12/27 13:07:49;;;;;;;9.50;4.20;;;5.20;40.60;;;;;;5095381;28;20478;-47
2021/12/27 13:10:31;;;;;;;6.07;3.50;;;5.20;40.60;;;;;;5095221;28;20175;-46
2021/12/27 13:13:12;;;;;;;5.80;3.60;;;5.10;41.00;;;;;;5095348;28;20539;-48
2021/12/27 13:15:50;;;;;;;4.45;3.30;;;5.20;41.50;;;;;;5095225;28;20159;-47
2021/12/27 13:18:21;;;;;;;7.55;3.10;;;5.20;41.80;;;;;;5095223;28;20608;-47
2021/12/27 13:20:55;;;;;;;3.90;2.63;;;5.30;41.90;;;;;;5077858;28;20499;-49